sensor_id;sensor_type;location;lat;lon;timestamp;temperature;humidity
1205;DHT22;592;48.764;9.174;2023-08-06T10:19:35;16.00;99.90
1205;DHT22;592;48.764;9.174;2023-08-06T10:25:21;16.20;99.90
1205;DHT22;592;48.764;9.174;2023-08-06T16:55:59;15.90;99.90
1205;DHT22;592;48.764;9.174;2023-08-06T16:58:49;15.50;99.90
1205;DHT22;592;48.764;9.174;2023-08-06T17:01:24;14.80;99.90
1205;DHT22;592;48.764;9.174;2023-08-06T17:03:52;13.60;99.90
1205;DHT22;592;48.764;9.174;2023-08-06T17:06:20;13.30;99.90
1205;DHT22;592;48.764;9.174;2023-08-06T17:08:48;13.00;99.90
1205;DHT22;592;48.764;9.174;2023-08-06T17:11:17;13.30;99.90
1205;DHT22;592;48.764;9.174;2023-08-06T17:13:44;13.60;99.90
1205;DHT22;592;48.764;9.174;2023-08-06T17:16:16;13.60;99.90
1205;DHT22;592;48.764;9.174;2023-08-06T17:24:07;14.40;99.90
1205;DHT22;592;48.764;9.174;2023-08-06T20:43:38;13.00;99.90
1205;DHT22;592;48.764;9.174;2023-08-06T20:46:11;12.90;99.90
1205;DHT22;592;48.764;9.174;2023-08-06T20:48:40;12.90;99.90
1205;DHT22;592;48.764;9.174;2023-08-06T20:51:10;12.70;99.90
1205;DHT22;592;48.764;9.174;2023-08-06T20:53:39;12.70;99.90
1205;DHT22;592;48.764;9.174;2023-08-06T20:56:07;12.70;99.90
1205;DHT22;592;48.764;9.174;2023-08-06T20:58:35;12.70;99.90
1205;DHT22;592;48.764;9.174;2023-08-06T21:01:04;12.60;99.90
1205;DHT22;592;48.764;9.174;2023-08-06T21:03:31;12.60;99.90
1205;DHT22;592;48.764;9.174;2023-08-06T21:05:59;12.50;99.90
1205;DHT22;592;48.764;9.174;2023-08-06T21:08:26;12.50;99.90
1205;DHT22;592;48.764;9.174;2023-08-06T21:10:53;12.60;99.90
1205;DHT22;592;48.764;9.174;2023-08-06T21:13:20;12.60;99.90
1205;DHT22;592;48.764;9.174;2023-08-06T21:15:54;12.40;99.90
1205;DHT22;592;48.764;9.174;2023-08-06T21:18:22;12.40;99.90
1205;DHT22;592;48.764;9.174;2023-08-06T21:20:52;12.30;99.90
1205;DHT22;592;48.764;9.174;2023-08-06T21:23:21;12.40;99.90
1205;DHT22;592;48.764;9.174;2023-08-06T21:25:49;12.40;99.90
1205;DHT22;592;48.764;9.174;2023-08-06T21:28:18;12.30;99.90
1205;DHT22;592;48.764;9.174;2023-08-06T21:30:45;12.20;99.90
1205;DHT22;592;48.764;9.174;2023-08-06T21:33:11;12.20;99.90
1205;DHT22;592;48.764;9.174;2023-08-06T21:35:39;12.20;99.90
1205;DHT22;592;48.764;9.174;2023-08-06T21:38:06;12.30;99.90
1205;DHT22;592;48.764;9.174;2023-08-06T21:40:34;12.20;99.90
1205;DHT22;592;48.764;9.174;2023-08-06T21:43:01;12.20;99.90
1205;DHT22;592;48.764;9.174;2023-08-06T21:45:29;12.00;99.90
1205;DHT22;592;48.764;9.174;2023-08-06T21:47:56;12.00;99.90
1205;DHT22;592;48.764;9.174;2023-08-06T21:50:22;12.00;99.90
1205;DHT22;592;48.764;9.174;2023-08-06T21:52:50;12.10;99.90
1205;DHT22;592;48.764;9.174;2023-08-06T21:55:17;12.10;99.90
1205;DHT22;592;48.764;9.174;2023-08-06T21:57:44;12.10;99.90
1205;DHT22;592;48.764;9.174;2023-08-06T22:00:12;12.10;99.90
1205;DHT22;592;48.764;9.174;2023-08-06T22:02:38;12.10;99.90
1205;DHT22;592;48.764;9.174;2023-08-06T22:05:06;12.20;99.90
1205;DHT22;592;48.764;9.174;2023-08-06T22:07:40;12.10;99.90
1205;DHT22;592;48.764;9.174;2023-08-06T22:10:08;12.10;99.90
1205;DHT22;592;48.764;9.174;2023-08-06T22:12:35;12.10;99.90
1205;DHT22;592;48.764;9.174;2023-08-06T22:15:05;12.10;99.90
1205;DHT22;592;48.764;9.174;2023-08-06T22:17:32;12.00;99.90
1205;DHT22;592;48.764;9.174;2023-08-06T22:19:59;12.00;99.90
1205;DHT22;592;48.764;9.174;2023-08-06T22:22:26;12.00;99.90
1205;DHT22;592;48.764;9.174;2023-08-06T22:24:53;12.10;99.90
1205;DHT22;592;48.764;9.174;2023-08-06T22:27:21;12.00;99.90
1205;DHT22;592;48.764;9.174;2023-08-06T22:29:48;12.10;99.90
1205;DHT22;592;48.764;9.174;2023-08-06T22:32:14;12.00;99.90
1205;DHT22;592;48.764;9.174;2023-08-06T22:34:41;11.90;99.90
1205;DHT22;592;48.764;9.174;2023-08-06T22:37:08;11.90;99.90
1205;DHT22;592;48.764;9.174;2023-08-06T22:39:35;11.90;99.90
1205;DHT22;592;48.764;9.174;2023-08-06T22:42:01;12.00;99.90
1205;DHT22;592;48.764;9.174;2023-08-06T22:44:30;12.00;99.90
1205;DHT22;592;48.764;9.174;2023-08-06T22:46:57;12.00;99.90
1205;DHT22;592;48.764;9.174;2023-08-06T22:49:24;12.00;99.90
1205;DHT22;592;48.764;9.174;2023-08-06T22:51:51;12.00;99.90
1205;DHT22;592;48.764;9.174;2023-08-06T22:54:17;11.90;99.90
1205;DHT22;592;48.764;9.174;2023-08-06T22:56:44;12.00;99.90
1205;DHT22;592;48.764;9.174;2023-08-06T22:59:11;12.00;99.90
1205;DHT22;592;48.764;9.174;2023-08-06T23:01:39;11.90;99.90
1205;DHT22;592;48.764;9.174;2023-08-06T23:04:05;11.90;99.90
1205;DHT22;592;48.764;9.174;2023-08-06T23:06:32;11.90;99.90
1205;DHT22;592;48.764;9.174;2023-08-06T23:08:59;11.90;99.90
1205;DHT22;592;48.764;9.174;2023-08-06T23:11:26;12.00;99.90
1205;DHT22;592;48.764;9.174;2023-08-06T23:13:53;11.90;99.90
1205;DHT22;592;48.764;9.174;2023-08-06T23:16:20;11.80;99.90
1205;DHT22;592;48.764;9.174;2023-08-06T23:18:48;11.90;99.90
1205;DHT22;592;48.764;9.174;2023-08-06T23:21:15;11.90;99.90
1205;DHT22;592;48.764;9.174;2023-08-06T23:23:41;11.90;99.90
1205;DHT22;592;48.764;9.174;2023-08-06T23:26:09;12.00;99.90
1205;DHT22;592;48.764;9.174;2023-08-06T23:28:36;11.90;99.90
1205;DHT22;592;48.764;9.174;2023-08-06T23:31:04;12.00;99.90
1205;DHT22;592;48.764;9.174;2023-08-06T23:33:30;12.10;99.90
1205;DHT22;592;48.764;9.174;2023-08-06T23:35:58;11.90;99.90
1205;DHT22;592;48.764;9.174;2023-08-06T23:38:25;12.00;99.90
1205;DHT22;592;48.764;9.174;2023-08-06T23:40:52;12.00;99.90
1205;DHT22;592;48.764;9.174;2023-08-06T23:43:20;12.00;99.90
1205;DHT22;592;48.764;9.174;2023-08-06T23:45:47;11.90;99.90
1205;DHT22;592;48.764;9.174;2023-08-06T23:48:14;11.90;99.90
1205;DHT22;592;48.764;9.174;2023-08-06T23:50:41;12.00;99.90
1205;DHT22;592;48.764;9.174;2023-08-06T23:53:09;11.90;99.90
1205;DHT22;592;48.764;9.174;2023-08-06T23:55:35;11.90;99.90
1205;DHT22;592;48.764;9.174;2023-08-06T23:58:02;11.90;99.90
